Time;durP1;ratioP1;P1;durP2;ratioP2;P2;SDS_P1;SDS_P2;PMS_P1;PMS_P2;Temp;Humidity;BMP_temperature;BMP_pressure;BME280_temperature;BME280_humidity;BME280_pressure;Samples;Min_cycle;Max_cycle;Signal;HPM_P1;HPM_P2
2021/09/16 00:01:06;;;;;;;;;8.00;8.00;;;;;18.85;69.06;100892.47;4957589;28;67663;-62
2021/09/16 00:03:32;;;;;;;;;7.00;7.00;;;;;18.83;69.14;100886.50;4958522;28;45161;-61
2021/09/16 00:05:57;;;;;;;;;8.50;7.25;;;;;18.79;69.52;100878.06;4957669;28;63085;-62
2021/09/16 00:08:22;;;;;;;;;9.00;8.00;;;;;18.76;69.33;100873.13;4957231;28;73791;-62
2021/09/16 00:10:48;;;;;;;;;9.50;8.00;;;;;18.75;68.85;100878.63;4957320;28;69102;-61
2021/09/16 00:13:13;;;;;;;;;9.00;8.75;;;;;18.75;68.42;100875.97;4958679;28;45341;-61
2021/09/16 00:15:39;;;;;;;;;8.00;8.00;;;;;18.75;68.88;100868.00;4958035;28;48045;-61
2021/09/16 00:18:04;;;;;;;;;9.25;8.00;;;;;18.73;69.14;100872.66;4957232;28;69421;-61
2021/09/16 00:20:30;;;;;;;;;8.00;8.00;;;;;18.69;68.70;100861.53;4958082;28;45282;-61
2021/09/16 00:22:55;;;;;;;;;10.00;10.00;;;;;18.67;68.64;100864.41;4956760;28;45976;-62
2021/09/16 00:25:21;;;;;;;;;8.25;8.25;;;;;18.63;69.19;100870.25;4957373;28;63563;-62
2021/09/16 00:27:46;;;;;;;;;7.00;7.00;;;;;18.58;69.18;100862.81;4957189;28;67977;-62
2021/09/16 00:30:12;;;;;;;;;11.00;8.00;;;;;18.55;68.64;100868.50;4957104;28;69556;-62
2021/09/16 00:32:37;;;;;;;;;7.75;6.00;;;;;18.50;69.34;100873.53;4958015;28;45330;-61
2021/09/16 00:35:04;;;;;;;;;8.50;8.50;;;;;18.47;68.97;100868.56;4958012;28;45272;-61
2021/09/16 00:37:30;;;;;;;;;8.25;8.25;;;;;18.43;68.75;100878.75;4957267;28;46273;-61
2021/09/16 00:39:55;;;;;;;;;8.75;7.50;;;;;18.39;68.81;100882.78;4956717;28;68654;-62
2021/09/16 00:42:21;;;;;;;;;9.50;8.25;;;;;18.34;69.28;100882.50;4957954;28;45184;-62
2021/09/16 00:44:46;;;;;;;;;7.75;7.00;;;;;18.29;69.38;100892.84;4957868;28;45564;-62
2021/09/16 00:47:12;;;;;;;;;8.75;8.75;;;;;18.24;69.07;100898.69;4956799;28;73447;-61
2021/09/16 00:49:38;;;;;;;;;13.25;9.50;;;;;18.19;69.13;100904.53;4957717;28;45256;-61
2021/09/16 00:52:04;;;;;;;;;11.00;9.25;;;;;18.17;69.06;100905.72;4940609;28;45527;-62
2021/09/16 00:54:30;;;;;;;;;14.25;9.00;;;;;18.10;69.00;100902.94;4940443;28;45344;-61
2021/09/16 00:56:56;;;;;;;;;10.50;10.00;;;;;18.07;69.30;100905.94;4957520;28;46267;-61
2021/09/16 00:59:21;;;;;;;;;11.25;9.50;;;;;18.04;69.39;100900.97;4939387;28;66469;-61
2021/09/16 01:01:48;;;;;;;;;9.75;7.50;;;;;18.00;69.38;100900.50;4940424;28;45350;-61
2021/09/16 01:04:13;;;;;;;;;10.00;10.00;;;;;17.94;69.33;100907.34;4957665;28;45480;-61
2021/09/16 01:06:38;;;;;;;;;8.50;8.50;;;;;17.92;69.64;100904.03;4956910;28;68239;-61
2021/09/16 01:09:04;;;;;;;;;11.50;9.25;;;;;17.90;69.49;100906.03;4956777;28;71676;-60
2021/09/16 01:11:29;;;;;;;;;12.75;8.25;;;;;17.88;69.44;100904.53;4956917;28;66096;-62
2021/09/16 01:13:56;;;;;;;;;11.25;9.00;;;;;17.83;69.20;100898.91;4956930;28;58751;-61
2021/09/16 01:16:22;;;;;;;;;11.25;7.00;;;;;17.80;69.98;100905.44;4957356;28;46202;-61
2021/09/16 01:18:47;;;;;;;;;12.50;9.75;;;;;17.77;69.84;100903.13;4957237;28;52724;-61
2021/09/16 01:21:12;;;;;;;;;12.00;10.00;;;;;17.74;69.75;100914.94;4956955;28;61723;-61
2021/09/16 01:23:38;;;;;;;;;10.00;10.00;;;;;17.73;69.96;100912.44;4957027;28;52828;-61
2021/09/16 01:26:03;;;;;;;;;11.50;9.00;;;;;17.70;69.63;100915.44;4957171;28;46040;-61
2021/09/16 01:28:28;;;;;;;;;11.75;9.50;;;;;17.68;69.76;100912.13;4956282;28;69335;-61
2021/09/16 01:30:54;;;;;;;;;8.75;7.25;;;;;17.64;69.90;100911.66;4956004;28;45355;-61
2021/09/16 01:33:19;;;;;;;;;8.50;8.50;;;;;17.61;70.06;100922.63;4956518;28;63566;-61
2021/09/16 01:35:45;;;;;;;;;10.50;9.75;;;;;17.58;70.04;100922.97;4958350;28;65489;-61
2021/09/16 01:38:10;;;;;;;;;11.00;11.00;;;;;17.55;70.24;100924.13;4960832;28;45326;-61
2021/09/16 01:40:35;;;;;;;;;13.25;8.50;;;;;17.53;70.23;100927.97;4959669;28;61541;-61
2021/09/16 01:43:01;;;;;;;;;10.00;10.00;;;;;17.51;70.24;100925.47;4960530;28;45262;-62
2021/09/16 01:45:26;;;;;;;;;9.25;9.00;;;;;17.50;70.24;100922.00;4959489;28;69967;-61
2021/09/16 01:47:52;;;;;;;;;14.75;12.50;;;;;17.49;70.32;100933.63;4960357;28;45291;-61
2021/09/16 01:50:19;;;;;;;;;11.75;10.75;;;;;17.48;70.66;100931.97;4958262;28;67479;-61
2021/09/16 01:52:44;;;;;;;;;10.00;10.00;;;;;17.48;70.79;100931.97;4960386;28;45215;-61
2021/09/16 01:55:10;;;;;;;;;11.75;9.25;;;;;17.49;71.25;100938.09;4959310;28;70477;-61
2021/09/16 01:57:35;;;;;;;;;10.50;9.00;;;;;17.50;71.25;100937.09;4959523;28;72586;-61
2021/09/16 02:00:01;;;;;;;;;11.25;11.25;;;;;17.55;70.80;100940.06;4960439;28;45802;-61
2021/09/16 02:02:26;;;;;;;;;16.00;12.25;;;;;17.57;70.72;100939.91;4960219;28;45484;-61
2021/09/16 02:04:52;;;;;;;;;16.25;11.00;;;;;17.57;70.75;100937.25;4957830;28;74199;-61
2021/09/16 02:07:17;;;;;;;;;15.25;13.75;;;;;17.57;70.72;100942.56;4959275;28;66884;-61
2021/09/16 02:09:42;;;;;;;;;15.00;14.00;;;;;17.56;71.02;100952.38;4959372;28;63247;-61
2021/09/16 02:12:08;;;;;;;;;14.25;11.25;;;;;17.55;70.83;100953.34;4959974;28;47532;-61
2021/09/16 02:14:34;;;;;;;;;11.75;11.50;;;;;17.55;70.81;100949.88;4959802;28;46306;-62
2021/09/16 02:16:59;;;;;;;;;15.00;12.00;;;;;17.54;70.78;100950.88;4958396;28;45354;-61
2021/09/16 02:19:24;;;;;;;;;9.50;9.00;;;;;17.51;70.53;100954.69;4959077;28;64074;-62
2021/09/16 02:21:50;;;;;;;;;10.75;10.25;;;;;17.49;70.79;100949.56;4959057;28;66677;-61
2021/09/16 02:24:15;;;;;;;;;11.75;10.50;;;;;17.48;70.68;100947.09;4959979;28;45382;-62
2021/09/16 02:26:41;;;;;;;;;12.50;11.75;;;;;17.46;70.60;100949.09;4957796;28;65013;-61
2021/09/16 02:29:06;;;;;;;;;15.00;12.00;;;;;17.47;70.53;100953.41;4959002;28;65399;-61
2021/09/16 02:31:31;;;;;;;;;12.25;11.75;;;;;17.44;70.45;100951.09;4958902;28;68189;-61
2021/09/16 02:33:57;;;;;;;;;13.25;12.50;;;;;17.45;70.62;100952.75;4959919;28;46517;-61
2021/09/16 02:36:22;;;;;;;;;14.00;11.25;;;;;17.43;70.58;100952.09;4958796;28;65774;-61
2021/09/16 02:38:48;;;;;;;;;13.25;11.50;;;;;17.41;70.40;100954.09;4959512;28;45440;-61
2021/09/16 02:41:13;;;;;;;;;13.50;11.25;;;;;17.40;70.37;100955.91;4959638;28;45271;-61
2021/09/16 02:43:38;;;;;;;;;11.25;11.00;;;;;17.40;70.32;100955.09;4958669;28;68703;-61
2021/09/16 02:46:04;;;;;;;;;13.50;11.25;;;;;17.39;70.22;100954.25;4958580;28;45234;-61
2021/09/16 02:48:29;;;;;;;;;12.50;11.75;;;;;17.40;70.58;100949.78;4958488;28;64601;-61
2021/09/16 02:50:55;;;;;;;;;15.25;13.00;;;;;17.38;70.50;100949.13;4958736;28;64864;-62
2021/09/16 02:53:20;;;;;;;;;13.75;11.50;;;;;17.35;70.36;100951.13;4958245;28;74732;-61
2021/09/16 02:55:45;;;;;;;;;14.25;11.25;;;;;17.34;70.69;100954.78;4958692;28;62521;-62
2021/09/16 02:58:11;;;;;;;;;12.50;10.25;;;;;17.33;70.75;100962.91;4958554;28;64844;-61
2021/09/16 03:00:36;;;;;;;;;12.00;11.75;;;;;17.32;70.68;100964.75;4958629;28;68433;-61
2021/09/16 03:03:01;;;;;;;;;12.75;12.00;;;;;17.34;70.41;100970.72;4958692;28;62281;-61
2021/09/16 03:05:27;;;;;;;;;11.50;11.25;;;;;17.34;70.22;100965.41;4958442;28;67844;-61
2021/09/16 03:07:52;;;;;;;;;14.00;10.50;;;;;17.34;70.42;100967.22;4959314;28;45167;-62
2021/09/16 03:10:18;;;;;;;;;11.50;11.25;;;;;17.34;70.49;100980.50;4959284;28;45168;-61
2021/09/16 03:12:43;;;;;;;;;14.00;12.00;;;;;17.33;70.23;100976.19;4958233;28;54783;-61
2021/09/16 03:15:09;;;;;;;;;12.50;10.25;;;;;17.33;70.29;100976.19;4958441;28;66693;-62
2021/09/16 03:17:34;;;;;;;;;14.75;12.50;;;;;17.33;70.02;100979.69;4959203;28;45423;-61
2021/09/16 03:20:00;;;;;;;;;17.00;12.00;;;;;17.36;70.18;100978.50;4958157;28;65484;-61
2021/09/16 03:22:25;;;;;;;;;13.00;11.25;;;;;17.35;70.32;100977.69;4958126;28;71314;-61
2021/09/16 03:24:50;;;;;;;;;11.25;9.75;;;;;17.35;70.12;100983.00;4958034;28;68134;-61
2021/09/16 03:27:16;;;;;;;;;14.50;12.00;;;;;17.37;70.06;100984.66;4958951;28;45298;-61
2021/09/16 03:29:41;;;;;;;;;13.00;11.25;;;;;17.35;70.22;100977.69;4957952;28;69303;-61
2021/09/16 03:32:07;;;;;;;;;12.00;12.00;;;;;17.36;70.35;100978.50;4958056;28;74947;-61
2021/09/16 03:34:32;;;;;;;;;15.25;12.00;;;;;17.34;70.28;100978.69;4958928;28;45259;-61
2021/09/16 03:36:57;;;;;;;;;11.25;9.00;;;;;17.32;70.17;100978.03;4958768;28;45566;-61
2021/09/16 03:39:23;;;;;;;;;10.25;9.00;;;;;17.32;70.01;100983.34;4958003;28;58522;-61
2021/09/16 03:41:48;;;;;;;;;10.25;10.00;;;;;17.32;69.87;100977.19;4958353;28;52125;-61
2021/09/16 03:44:13;;;;;;;;;14.50;11.25;;;;;17.29;70.04;100983.66;4957841;28;69880;-61
2021/09/16 03:46:39;;;;;;;;;13.75;13.25;;;;;17.27;69.68;100985.66;4958689;28;45227;-61
2021/09/16 03:49:04;;;;;;;;;11.00;10.50;;;;;17.26;69.83;100984.00;4958887;28;45211;-61
2021/09/16 03:51:30;;;;;;;;;8.75;8.25;;;;;17.27;70.01;100984.81;4958697;28;46327;-61
2021/09/16 03:53:55;;;;;;;;;13.50;11.25;;;;;17.25;69.75;100982.34;4958431;28;45254;-61
2021/09/16 03:56:21;;;;;;;;;11.25;10.00;;;;;17.25;69.90;100981.50;4957769;28;62545;-61
2021/09/16 03:58:46;;;;;;;;;13.50;11.25;;;;;17.25;69.83;100979.69;4958363;28;45217;-61
2021/09/16 04:01:11;;;;;;;;;12.25;8.25;;;;;17.27;69.98;100984.81;4957403;28;71793;-62
2021/09/16 04:03:37;;;;;;;;;12.25;11.50;;;;;17.27;69.88;100988.31;4958305;28;45290;-61
2021/09/16 04:06:02;;;;;;;;;13.00;11.75;;;;;17.27;69.83;101000.75;4957508;28;65808;-61
2021/09/16 04:08:27;;;;;;;;;12.00;11.00;;;;;17.27;69.96;100990.97;4957475;28;67615;-61
2021/09/16 04:10:53;;;;;;;;;13.25;11.50;;;;;17.27;69.67;100995.44;4957354;28;67335;-62
2021/09/16 04:13:18;;;;;;;;;12.75;12.75;;;;;17.26;69.41;100994.63;4957371;28;66465;-61
2021/09/16 04:15:43;;;;;;;;;12.75;10.50;;;;;17.26;69.97;101004.41;4957499;28;63633;-61
2021/09/16 04:18:09;;;;;;;;;9.25;9.25;;;;;17.25;69.90;101000.94;4958178;28;45324;-61
2021/09/16 04:20:34;;;;;;;;;12.25;11.50;;;;;17.23;69.81;100997.63;4957127;28;69529;-61
2021/09/16 04:23:00;;;;;;;;;11.50;11.50;;;;;17.20;69.56;100998.81;4957324;28;64203;-61
2021/09/16 04:25:25;;;;;;;;;14.75;14.00;;;;;17.20;69.68;100997.94;4957350;28;62605;-61
2021/09/16 04:27:50;;;;;;;;;12.00;10.25;;;;;17.18;69.30;101000.78;4958342;28;45378;-61
2021/09/16 04:30:16;;;;;;;;;11.75;10.75;;;;;17.16;69.51;101004.59;4956842;28;73921;-61
2021/09/16 04:32:41;;;;;;;;;11.75;10.50;;;;;17.14;69.64;101010.09;4957018;28;67378;-61
2021/09/16 04:35:07;;;;;;;;;14.50;10.75;;;;;17.14;69.46;101001.28;4957980;28;45287;-61
2021/09/16 04:37:33;;;;;;;;;14.50;11.25;;;;;17.13;69.66;101002.28;4957772;28;45640;-61
2021/09/16 04:39:58;;;;;;;;;12.25;12.25;;;;;17.11;69.81;100996.31;4956619;28;64606;-61
2021/09/16 04:42:23;;;;;;;;;11.00;10.75;;;;;17.08;69.74;100993.97;4957243;28;58615;-62
2021/09/16 04:44:49;;;;;;;;;11.25;10.25;;;;;17.05;69.76;101001.28;4957124;28;60150;-61
2021/09/16 04:47:14;;;;;;;;;16.00;12.75;;;;;17.03;69.76;100995.31;4958097;28;45343;-61
2021/09/16 04:49:39;;;;;;;;;12.75;8.75;;;;;17.01;69.85;101001.78;4956912;28;69976;-61
2021/09/16 04:52:05;;;;;;;;;16.25;11.50;;;;;17.03;69.72;100999.81;4957610;28;45259;-61
2021/09/16 04:54:30;;;;;;;;;13.50;13.50;;;;;17.00;69.91;100995.66;4957689;28;45300;-61
2021/09/16 04:56:56;;;;;;;;;13.75;11.00;;;;;17.00;69.95;101000.13;4956780;28;66539;-61
2021/09/16 04:59:21;;;;;;;;;13.25;13.25;;;;;16.97;69.92;100998.63;4957334;28;45484;-61
2021/09/16 05:01:46;;;;;;;;;12.50;12.50;;;;;16.97;69.77;100995.16;4956621;28;67515;-62
2021/09/16 05:04:12;;;;;;;;;15.25;14.00;;;;;16.94;69.77;100998.97;4956890;28;58884;-61
2021/09/16 05:06:37;;;;;;;;;13.00;11.00;;;;;16.93;69.90;101005.25;4957701;28;45476;-61
2021/09/16 05:09:03;;;;;;;;;9.50;9.50;;;;;16.91;70.22;101002.75;4957267;28;47238;-61
2021/09/16 05:11:28;;;;;;;;;13.75;12.50;;;;;16.89;70.22;101002.09;4960569;28;45184;-61
2021/09/16 05:13:54;;;;;;;;;12.25;11.75;;;;;16.88;70.26;101012.91;4960923;28;45916;-61
2021/09/16 05:16:19;;;;;;;;;14.75;12.00;;;;;16.85;70.30;101013.22;4960986;28;45440;-61
2021/09/16 05:18:45;;;;;;;;;13.25;12.00;;;;;16.83;70.42;101012.56;4960560;28;45425;-61
2021/09/16 05:21:11;;;;;;;;;13.00;12.50;;;;;16.79;70.89;101009.38;4960847;28;45371;-61
2021/09/16 05:23:36;;;;;;;;;16.50;13.25;;;;;16.76;70.59;101007.91;4960811;28;45347;-61
2021/09/16 05:26:02;;;;;;;;;12.25;11.00;;;;;16.73;70.70;101010.88;4960790;28;45504;-61
2021/09/16 05:28:27;;;;;;;;;11.50;11.50;;;;;16.71;70.64;101012.88;4960506;28;45618;-61
2021/09/16 05:30:53;;;;;;;;;12.50;11.00;;;;;16.72;70.83;101013.69;4960678;28;45312;-61
2021/09/16 05:33:18;;;;;;;;;12.50;11.75;;;;;16.68;71.21;101017.69;4960494;28;45869;-62
2021/09/16 05:35:44;;;;;;;;;11.25;7.75;;;;;16.67;70.56;101022.16;4959895;28;45215;-61
2021/09/16 05:38:09;;;;;;;;;15.00;12.75;;;;;16.68;70.53;101026.47;4960254;28;46908;-61
2021/09/16 05:40:35;;;;;;;;;13.50;11.00;;;;;16.68;70.41;101028.31;4960112;28;45266;-62
2021/09/16 05:43:00;;;;;;;;;13.50;11.50;;;;;16.67;70.53;101026.66;4959317;28;45307;-61
2021/09/16 05:45:26;;;;;;;;;13.00;12.25;;;;;16.63;70.61;101026.13;4960516;28;45206;-61
2021/09/16 05:47:51;;;;;;;;;12.75;11.50;;;;;16.61;70.44;101022.81;4960422;28;45580;-61
2021/09/16 05:50:16;;;;;;;;;12.25;10.50;;;;;16.60;70.64;101029.13;4960330;28;45247;-61
2021/09/16 05:52:42;;;;;;;;;15.00;11.50;;;;;16.58;70.40;101033.75;4960458;28;45239;-61
2021/09/16 05:55:09;;;;;;;;;11.00;10.25;;;;;16.54;70.47;101035.06;4960336;28;45543;-61
2021/09/16 05:57:35;;;;;;;;;13.00;11.25;;;;;16.53;70.64;101036.91;4958822;28;46657;-61
2021/09/16 06:00:00;;;;;;;;;10.75;10.75;;;;;16.53;70.12;101034.25;4959980;28;45342;-61
2021/09/16 06:02:26;;;;;;;;;12.00;9.25;;;;;16.52;70.35;101037.06;4960256;28;45353;-61
2021/09/16 06:04:51;;;;;;;;;12.25;12.00;;;;;16.50;70.42;101034.56;4960067;28;45422;-61
2021/09/16 06:07:16;;;;;;;;;11.25;8.75;;;;;16.49;70.26;101045.34;4959800;28;46873;-61
2021/09/16 06:09:42;;;;;;;;;15.25;9.25;;;;;16.48;70.48;101047.16;4959931;28;45306;-61
2021/09/16 06:12:08;;;;;;;;;11.25;9.25;;;;;16.48;70.32;101052.47;4958852;28;45357;-61
2021/09/16 06:14:34;;;;;;;;;12.50;11.00;;;;;16.50;70.56;101057.59;4960068;28;45595;-61
2021/09/16 06:16:59;;;;;;;;;12.50;12.00;;;;;16.51;70.61;101059.25;4959674;28;46397;-61
2021/09/16 06:19:25;;;;;;;;;12.75;10.25;;;;;16.54;70.36;101064.25;4959151;28;45341;-61
2021/09/16 06:21:50;;;;;;;;;12.75;11.25;;;;;16.55;70.50;101068.56;4958735;28;45267;-61
2021/09/16 06:24:16;;;;;;;;;14.00;12.25;;;;;16.58;70.40;101068.22;4960140;28;45203;-61
2021/09/16 06:26:41;;;;;;;;;12.25;10.00;;;;;16.60;70.29;101066.25;4959914;28;46329;-61
2021/09/16 06:29:07;;;;;;;;;11.00;9.50;;;;;16.63;70.34;101062.47;4959564;28;45187;-61
2021/09/16 06:31:32;;;;;;;;;14.00;11.75;;;;;16.64;70.34;101061.47;4959752;28;45239;-61
2021/09/16 06:33:58;;;;;;;;;12.00;11.50;;;;;16.66;70.20;101068.25;4959686;28;45240;-61
2021/09/16 06:36:23;;;;;;;;;10.75;10.75;;;;;16.69;70.11;101077.72;4959417;28;45274;-61
2021/09/16 06:38:48;;;;;;;;;11.00;9.75;;;;;16.71;70.21;101071.25;4959078;28;45258;-61
2021/09/16 06:41:14;;;;;;;;;11.00;10.25;;;;;16.73;69.88;101085.19;4959484;28;45494;-60
2021/09/16 06:43:39;;;;;;;;;12.75;10.50;;;;;16.77;69.59;101075.91;4958374;28;45407;-62
2021/09/16 06:46:05;;;;;;;;;10.75;9.75;;;;;16.83;69.41;101087.69;4959386;28;46216;-62
2021/09/16 06:48:30;;;;;;;;;12.75;12.00;;;;;16.88;69.39;101085.38;4959270;28;45334;-61
2021/09/16 06:50:56;;;;;;;;;12.25;10.50;;;;;16.92;69.45;101080.59;4959394;28;45302;-61
2021/09/16 06:53:22;;;;;;;;;11.75;10.00;;;;;16.99;69.20;101083.44;4959316;28;45538;-61
2021/09/16 06:55:47;;;;;;;;;10.00;8.50;;;;;17.05;68.95;101082.78;4959255;28;45674;-61
2021/09/16 06:58:13;;;;;;;;;8.00;8.00;;;;;17.12;68.49;101083.78;4958117;28;45375;-61
2021/09/16 07:00:38;;;;;;;;;12.25;9.50;;;;;17.20;68.34;101086.44;4959462;28;45602;-61
2021/09/16 07:03:04;;;;;;;;;8.00;8.00;;;;;17.30;68.02;101088.91;4959346;28;45540;-61
2021/09/16 07:05:29;;;;;;;;;12.00;10.75;;;;;17.39;67.70;101088.91;4959158;28;46334;-61
2021/09/16 07:07:55;;;;;;;;;10.25;9.00;;;;;17.51;67.68;101082.22;4959046;28;45266;-61
2021/09/16 07:10:20;;;;;;;;;10.50;7.25;;;;;17.66;67.85;101087.69;4959372;28;45208;-61
2021/09/16 07:12:45;;;;;;;;;7.25;6.25;;;;;17.82;67.29;101086.81;4957900;28;45261;-61
2021/09/16 07:15:11;;;;;;;;;10.50;8.50;;;;;17.99;66.50;101077.00;4959084;28;45516;-62
2021/09/16 07:17:36;;;;;;;;;9.00;9.00;;;;;18.17;65.92;101079.41;4959029;28;45202;-62
2021/09/16 07:20:02;;;;;;;;;10.50;10.00;;;;;18.34;65.09;101087.31;4957472;28;45325;-61
2021/09/16 07:22:28;;;;;;;;;7.00;7.00;;;;;18.51;64.74;101093.38;4958769;28;45226;-61
2021/09/16 07:24:53;;;;;;;;;5.75;5.00;;;;;18.70;64.47;101092.09;4958731;28;46032;-61
2021/09/16 07:27:19;;;;;;;;;7.00;6.00;;;;;18.91;63.31;101088.78;4958594;28;45213;-61
2021/09/16 07:29:44;;;;;;;;;9.50;7.00;;;;;19.10;62.52;101089.34;4958866;28;45344;-61
2021/09/16 07:32:09;;;;;;;;;6.00;4.25;;;;;19.29;62.60;101093.34;4958467;28;45492;-61
2021/09/16 07:34:35;;;;;;;;;5.25;4.00;;;;;19.48;61.50;101097.34;4958742;28;46984;-61
2021/09/16 07:37:01;;;;;;;;;4.25;4.25;;;;;19.68;60.95;101100.28;4958506;28;45286;-62
2021/09/16 07:39:26;;;;;;;;;9.00;4.00;;;;;19.88;59.81;101094.44;4958521;28;45326;-61
2021/09/16 07:41:51;;;;;;;;;5.75;4.25;;;;;20.06;59.87;101090.59;4958710;28;45281;-61
2021/09/16 07:44:17;;;;;;;;;7.00;7.00;;;;;20.25;58.52;101086.53;4958586;28;46420;-61
2021/09/16 07:46:43;;;;;;;;;7.00;5.50;;;;;20.41;58.80;101093.47;4958553;28;45350;-62
2021/09/16 07:49:08;;;;;;;;;6.00;5.50;;;;;20.57;57.71;101095.94;4957503;28;45359;-61
2021/09/16 07:51:33;;;;;;;;;7.50;6.00;;;;;20.73;57.92;101102.88;4958567;28;45261;-62
2021/09/16 07:53:59;;;;;;;;;7.25;5.50;;;;;20.86;56.78;101101.38;4958494;28;46001;-62
2021/09/16 07:56:24;;;;;;;;;4.50;4.00;;;;;21.00;56.62;101111.16;4958486;28;45217;-61
2021/09/16 07:58:50;;;;;;;;;3.25;3.25;;;;;21.15;55.92;101110.25;4958531;28;45497;-61
2021/09/16 08:01:15;;;;;;;;;4.50;4.00;;;;;21.30;55.68;101116.38;4958339;28;45472;-62
2021/09/16 08:03:41;;;;;;;;;4.75;4.00;;;;;21.45;54.79;101113.59;4956169;28;48620;-61
2021/09/16 08:06:06;;;;;;;;;5.00;5.00;;;;;21.57;54.77;101124.56;4958147;28;45296;-62
2021/09/16 08:08:32;;;;;;;;;4.75;4.75;;;;;21.72;54.40;101121.00;4958187;28;45223;-62
2021/09/16 08:10:57;;;;;;;;;5.00;3.75;;;;;21.85;54.11;101122.94;4958260;28;45580;-62
2021/09/16 08:13:23;;;;;;;;;4.50;4.50;;;;;21.98;53.72;101125.69;4958098;28;45503;-61
2021/09/16 08:15:48;;;;;;;;;6.50;4.75;;;;;22.12;53.13;101117.72;4958185;28;45228;-62
2021/09/16 08:18:13;;;;;;;;;6.75;3.50;;;;;22.20;52.19;101121.06;4957790;28;45243;-62
2021/09/16 08:20:42;;;;;;;;;3.00;3.00;;;;;22.29;52.68;101116.34;4956574;28;45291;-62
2021/09/16 08:23:08;;;;;;;;;3.00;3.00;;;;;22.37;51.29;101118.84;4957801;28;45330;-62
2021/09/16 08:25:33;;;;;;;;;3.75;2.75;;;;;22.45;51.43;101115.22;4957901;28;45429;-62
2021/09/16 08:27:59;;;;;;;;;3.50;3.00;;;;;22.56;51.13;101112.97;4958177;28;45284;-62
2021/09/16 08:30:24;;;;;;;;;3.00;2.00;;;;;22.67;50.80;101113.22;4957646;28;45496;-61
2021/09/16 08:32:50;;;;;;;;;2.00;2.00;;;;;22.79;49.65;101113.44;4957643;28;46032;-61
2021/09/16 08:35:15;;;;;;;;;1.25;1.00;;;;;22.91;48.56;101113.66;4955952;28;45266;-61
2021/09/16 08:37:40;;;;;;;;;0.00;0.00;;;;;23.02;48.50;101109.56;4957871;28;45234;-62
2021/09/16 08:40:07;;;;;;;;;2.00;2.00;;;;;23.19;47.12;101117.19;4957354;28;45603;-62
2021/09/16 08:42:32;;;;;;;;;2.00;2.00;;;;;23.33;48.09;101115.34;4956151;28;46539;-63
2021/09/16 08:44:57;;;;;;;;;1.00;1.00;;;;;23.51;48.14;101120.91;4955138;28;45215;-63
2021/09/16 08:47:24;;;;;;;;;1.50;1.50;;;;;23.67;47.16;101127.69;4957574;28;45311;-62
2021/09/16 08:49:51;;;;;;;;;2.00;2.00;;;;;23.83;46.82;101121.09;4957434;28;45266;-61
2021/09/16 08:52:17;;;;;;;;;3.00;2.00;;;;;23.95;46.06;101113.19;4957190;28;45372;-63
2021/09/16 08:54:42;;;;;;;;;1.00;1.00;;;;;24.04;45.25;101119.19;4956005;28;45437;-62
2021/09/16 08:57:12;;;;;;;;;2.00;2.00;;;;;24.08;45.23;101120.41;4957532;28;45551;-62
2021/09/16 08:59:37;;;;;;;;;3.75;1.00;;;;;24.10;45.96;101115.66;4940576;28;45414;-62
2021/09/16 09:02:03;;;;;;;;;2.75;1.75;;;;;24.18;45.66;101125.31;4940237;28;46210;-62
2021/09/16 09:04:28;;;;;;;;;3.75;2.00;;;;;24.26;44.96;101124.28;4957270;28;45279;-62
2021/09/16 09:07:05;;;;;;;;;34.25;31.25;;;;;24.36;45.13;101123.81;4957309;28;45539;-61
2021/09/16 09:09:31;;;;;;;;;2.50;1.50;;;;;24.48;44.26;101127.47;4957465;28;45326;-61
2021/09/16 09:12:01;;;;;;;;;1.75;1.00;;;;;24.51;44.18;101134.25;4957236;28;45465;-61
2021/09/16 09:14:35;;;;;;;;;1.00;1.00;;;;;24.59;43.52;101139.38;4957640;28;45715;-62
2021/09/16 09:17:02;;;;;;;;;2.25;2.00;;;;;24.65;43.54;101143.91;4957371;28;45253;-62
2021/09/16 09:19:28;;;;;;;;;1.50;1.00;;;;;24.72;42.97;101133.13;4956065;28;45352;-61
2021/09/16 09:21:57;;;;;;;;;2.00;2.00;;;;;24.83;42.91;101134.34;4957259;28;46943;-62
2021/09/16 09:24:32;;;;;;;;;2.00;2.00;;;;;24.99;42.66;101146.41;4957186;28;45908;-61
2021/09/16 09:26:57;;;;;;;;;3.00;2.00;;;;;25.13;42.36;101137.22;4957280;28;45330;-61
2021/09/16 09:29:23;;;;;;;;;1.00;1.00;;;;;25.27;41.74;101146.00;4957046;28;45580;-62
2021/09/16 09:31:59;;;;;;;;;1.00;1.00;;;;;25.44;40.98;101140.06;4957043;28;45477;-61
2021/09/16 09:34:36;;;;;;;;;3.25;2.00;;;;;25.59;41.51;101142.44;4957144;28;45733;-61
2021/09/16 09:37:18;;;;;;;;;2.00;2.00;;;;;25.73;41.08;101137.75;4957081;28;45356;-61
2021/09/16 09:39:47;;;;;;;;;1.00;1.00;;;;;25.86;40.26;101142.16;4957057;28;45315;-62
2021/09/16 09:42:25;;;;;;;;;2.25;2.25;;;;;25.95;40.07;101140.81;4957325;28;46645;-62
2021/09/16 09:44:52;;;;;;;;;2.25;2.00;;;;;26.03;39.59;101143.22;4957349;28;45353;-61
2021/09/16 09:47:35;;;;;;;;;1.00;1.00;;;;;26.10;39.85;101129.66;4957479;28;45303;-61
2021/09/16 09:50:01;;;;;;;;;2.00;2.00;;;;;26.19;39.52;101132.91;4955969;28;45322;-61
2021/09/16 09:52:26;;;;;;;;;3.00;3.00;;;;;26.27;39.87;101137.16;4956831;28;45418;-61
2021/09/16 09:54:52;;;;;;;;;2.75;2.00;;;;;26.34;39.54;101137.91;4956740;28;45498;-62
2021/09/16 09:57:18;;;;;;;;;2.50;2.50;;;;;26.43;39.52;101147.31;4959837;28;45524;-62
2021/09/16 09:59:56;;;;;;;;;0.75;0.75;;;;;26.47;38.59;101145.81;4960151;28;45269;-61
2021/09/16 10:02:27;;;;;;;;;1.25;1.25;;;;;26.50;38.05;101141.84;4960088;28;46585;-61
2021/09/16 10:04:52;;;;;;;;;2.50;1.75;;;;;26.53;37.92;101149.47;4958822;28;45740;-62
2021/09/16 10:07:44;;;;;;;;;3.00;2.00;;;;;26.56;38.14;101140.94;4960355;28;45442;-62
2021/09/16 10:10:10;;;;;;;;;1.75;1.75;;;;;26.55;37.88;101136.59;4957086;28;45270;-62
2021/09/16 10:12:36;;;;;;;;;2.00;2.00;;;;;26.58;38.22;101140.69;4959885;28;45390;-61
2021/09/16 10:15:01;;;;;;;;;2.75;1.00;;;;;26.60;37.76;101146.66;4960253;28;45421;-61
2021/09/16 10:17:27;;;;;;;;;2.00;2.00;;;;;26.50;37.53;101139.94;4958915;28;45354;-61
2021/09/16 10:19:52;;;;;;;;;2.00;2.00;;;;;26.42;38.52;101137.59;4959800;28;45329;-61
2021/09/16 10:22:18;;;;;;;;;2.00;1.00;;;;;26.36;38.24;101138.50;4959730;28;46277;-61
2021/09/16 10:24:43;;;;;;;;;1.00;1.00;;;;;26.36;38.11;101144.69;4958826;28;45366;-61
2021/09/16 10:27:29;;;;;;;;;2.25;2.25;;;;;26.37;38.04;101140.16;4958740;28;45356;-61
2021/09/16 10:29:54;;;;;;;;;2.00;2.00;;;;;26.40;37.76;101128.09;4959652;28;45267;-61
2021/09/16 10:32:20;;;;;;;;;2.00;2.00;;;;;26.47;37.79;101128.81;4959398;28;46421;-61
2021/09/16 10:34:47;;;;;;;;;3.25;3.00;;;;;26.55;38.18;101119.59;4959455;28;45267;-62
2021/09/16 10:37:19;;;;;;;;;2.75;2.75;;;;;26.57;38.14;101126.41;4959689;28;45196;-61
2021/09/16 10:39:46;;;;;;;;;5.00;2.50;;;;;26.60;38.05;101125.09;4959426;28;45214;-61
2021/09/16 10:42:12;;;;;;;;;2.25;2.00;;;;;26.59;37.54;101124.31;4959596;28;45281;-61
2021/09/16 10:44:38;;;;;;;;;2.00;2.00;;;;;26.53;37.97;101125.22;4958522;28;45272;-62
2021/09/16 10:47:16;;;;;;;;;3.00;3.00;;;;;26.55;37.87;101130.34;4959672;28;45184;-61
2021/09/16 10:49:42;;;;;;;;;4.00;4.00;;;;;26.50;37.84;101121.09;4959520;28;45278;-61
2021/09/16 10:52:10;;;;;;;;;3.25;3.25;;;;;26.36;37.53;101117.75;4959116;28;45362;-62
2021/09/16 10:54:36;;;;;;;;;3.00;3.00;;;;;26.28;38.16;101112.69;4959591;28;45156;-61
2021/09/16 10:57:15;;;;;;;;;1.75;1.75;;;;;26.30;38.65;101115.16;4959562;28;45242;-61
2021/09/16 10:59:50;;;;;;;;;2.75;2.75;;;;;26.38;38.25;101106.78;4959588;28;45308;-62
2021/09/16 11:02:16;;;;;;;;;2.75;2.50;;;;;26.42;38.54;101113.34;4957542;28;46186;-62
2021/09/16 11:05:02;;;;;;;;;2.00;2.00;;;;;26.50;38.67;101115.69;4958990;28;45441;-62
2021/09/16 11:07:30;;;;;;;;;4.25;3.00;;;;;26.61;37.93;101116.81;4958016;28;45304;-62
2021/09/16 11:09:56;;;;;;;;;4.50;4.25;;;;;26.66;36.18;101121.50;4959047;28;45260;-62
2021/09/16 11:12:31;;;;;;;;;3.00;3.00;;;;;26.62;36.30;101118.47;4958713;28;45326;-62